sensor_id;sensor_type;location;lat;lon;timestamp;P1;durP1;ratioP1;P2;durP2;ratioP2
22768;SDS011;13001;51.968;5.918;2022-09-27T00:00:14;353.80;;;328.83;;
22768;SDS011;13001;51.968;5.918;2022-09-27T00:02:44;359.30;;;334.50;;
22768;SDS011;13001;51.968;5.918;2022-09-27T00:05:14;346.25;;;321.95;;
22768;SDS011;13001;51.968;5.918;2022-09-27T00:07:42;362.17;;;336.90;;
22768;SDS011;13001;51.968;5.918;2022-09-27T00:10:09;368.77;;;342.60;;
22768;SDS011;13001;51.968;5.918;2022-09-27T00:12:37;359.53;;;334.30;;
22768;SDS011;13001;51.968;5.918;2022-09-27T00:15:05;337.27;;;313.63;;
22768;SDS011;13001;51.968;5.918;2022-09-27T00:17:33;341.12;;;316.80;;
22768;SDS011;13001;51.968;5.918;2022-09-27T00:20:00;346.85;;;322.40;;
22768;SDS011;13001;51.968;5.918;2022-09-27T00:22:28;337.32;;;314.10;;
22768;SDS011;13001;51.968;5.918;2022-09-27T00:24:55;356.32;;;331.43;;
22768;SDS011;13001;51.968;5.918;2022-09-27T00:27:23;371.87;;;345.75;;
22768;SDS011;13001;51.968;5.918;2022-09-27T00:29:51;432.90;;;401.43;;
22768;SDS011;13001;51.968;5.918;2022-09-27T00:32:19;447.48;;;415.00;;
22768;SDS011;13001;51.968;5.918;2022-09-27T00:34:46;436.95;;;405.85;;
22768;SDS011;13001;51.968;5.918;2022-09-27T00:37:13;435.30;;;404.45;;
22768;SDS011;13001;51.968;5.918;2022-09-27T00:39:41;432.93;;;402.03;;
22768;SDS011;13001;51.968;5.918;2022-09-27T00:42:09;427.37;;;397.30;;
22768;SDS011;13001;51.968;5.918;2022-09-27T00:52:15;448.28;;;416.45;;
22768;SDS011;13001;51.968;5.918;2022-09-27T00:54:43;442.20;;;410.70;;
22768;SDS011;13001;51.968;5.918;2022-09-27T00:57:10;459.87;;;426.07;;
22768;SDS011;13001;51.968;5.918;2022-09-27T00:59:43;452.52;;;420.82;;
22768;SDS011;13001;51.968;5.918;2022-09-27T01:02:06;448.00;;;416.25;;
22768;SDS011;13001;51.968;5.918;2022-09-27T01:04:34;440.12;;;409.55;;
22768;SDS011;13001;51.968;5.918;2022-09-27T01:07:03;433.50;;;402.60;;
22768;SDS011;13001;51.968;5.918;2022-09-27T01:09:30;422.83;;;392.83;;
22768;SDS011;13001;51.968;5.918;2022-09-27T01:12:06;407.32;;;378.65;;
22768;SDS011;13001;51.968;5.918;2022-09-27T01:22:41;412.92;;;382.83;;
22768;SDS011;13001;51.968;5.918;2022-09-27T01:25:21;409.33;;;379.27;;
22768;SDS011;13001;51.968;5.918;2022-09-27T01:30:27;472.57;;;437.42;;
22768;SDS011;13001;51.968;5.918;2022-09-27T01:33:02;506.05;;;467.35;;
22768;SDS011;13001;51.968;5.918;2022-09-27T01:35:39;556.05;;;513.12;;
22768;SDS011;13001;51.968;5.918;2022-09-27T01:40:51;496.68;;;459.37;;
22768;SDS011;13001;51.968;5.918;2022-09-27T01:43:18;455.30;;;421.63;;
22768;SDS011;13001;51.968;5.918;2022-09-27T01:46:08;414.20;;;384.65;;
22768;SDS011;13001;51.968;5.918;2022-09-27T01:48:35;414.52;;;385.57;;
22768;SDS011;13001;51.968;5.918;2022-09-27T01:51:07;421.65;;;391.80;;
22768;SDS011;13001;51.968;5.918;2022-09-27T01:53:45;433.27;;;402.35;;
22768;SDS011;13001;51.968;5.918;2022-09-27T01:56:14;430.98;;;400.95;;
22768;SDS011;13001;51.968;5.918;2022-09-27T01:58:42;445.00;;;412.85;;
22768;SDS011;13001;51.968;5.918;2022-09-27T02:01:10;430.93;;;400.38;;
22768;SDS011;13001;51.968;5.918;2022-09-27T02:03:39;452.93;;;420.08;;
22768;SDS011;13001;51.968;5.918;2022-09-27T02:06:09;433.70;;;403.20;;
22768;SDS011;13001;51.968;5.918;2022-09-27T02:11:10;436.32;;;406.23;;
22768;SDS011;13001;51.968;5.918;2022-09-27T02:13:48;441.60;;;410.40;;
22768;SDS011;13001;51.968;5.918;2022-09-27T02:18:53;438.00;;;408.07;;
22768;SDS011;13001;51.968;5.918;2022-09-27T02:21:21;452.00;;;420.68;;
22768;SDS011;13001;51.968;5.918;2022-09-27T02:23:51;452.52;;;420.95;;
22768;SDS011;13001;51.968;5.918;2022-09-27T02:26:19;463.33;;;430.85;;
22768;SDS011;13001;51.968;5.918;2022-09-27T02:28:59;477.40;;;444.43;;
22768;SDS011;13001;51.968;5.918;2022-09-27T02:31:25;480.52;;;447.17;;
22768;SDS011;13001;51.968;5.918;2022-09-27T02:33:54;473.37;;;440.23;;
22768;SDS011;13001;51.968;5.918;2022-09-27T02:36:22;470.50;;;437.35;;
22768;SDS011;13001;51.968;5.918;2022-09-27T02:38:49;475.12;;;441.92;;
22768;SDS011;13001;51.968;5.918;2022-09-27T02:41:18;469.73;;;437.18;;
22768;SDS011;13001;51.968;5.918;2022-09-27T02:43:46;477.97;;;444.33;;
22768;SDS011;13001;51.968;5.918;2022-09-27T02:46:22;475.40;;;442.12;;
22768;SDS011;13001;51.968;5.918;2022-09-27T02:54:23;482.75;;;448.47;;
22768;SDS011;13001;51.968;5.918;2022-09-27T02:57:02;465.00;;;432.50;;
22768;SDS011;13001;51.968;5.918;2022-09-27T03:02:31;477.23;;;443.80;;
22768;SDS011;13001;51.968;5.918;2022-09-27T03:05:02;465.62;;;432.98;;
22768;SDS011;13001;51.968;5.918;2022-09-27T03:07:25;486.08;;;451.90;;
22768;SDS011;13001;51.968;5.918;2022-09-27T03:09:53;470.55;;;437.72;;
22768;SDS011;13001;51.968;5.918;2022-09-27T03:12:20;468.07;;;435.50;;
22768;SDS011;13001;51.968;5.918;2022-09-27T03:14:58;499.12;;;464.75;;
22768;SDS011;13001;51.968;5.918;2022-09-27T03:17:22;522.30;;;485.57;;
22768;SDS011;13001;51.968;5.918;2022-09-27T03:19:49;507.50;;;471.05;;
22768;SDS011;13001;51.968;5.918;2022-09-27T03:22:16;543.77;;;503.60;;
22768;SDS011;13001;51.968;5.918;2022-09-27T03:24:43;549.95;;;508.70;;
22768;SDS011;13001;51.968;5.918;2022-09-27T03:27:11;553.92;;;511.98;;
22768;SDS011;13001;51.968;5.918;2022-09-27T03:29:38;544.62;;;503.55;;
22768;SDS011;13001;51.968;5.918;2022-09-27T03:32:05;553.08;;;510.93;;
22768;SDS011;13001;51.968;5.918;2022-09-27T03:34:33;568.10;;;525.27;;
22768;SDS011;13001;51.968;5.918;2022-09-27T03:37:01;557.75;;;515.88;;
22768;SDS011;13001;51.968;5.918;2022-09-27T03:39:29;539.48;;;499.08;;
22768;SDS011;13001;51.968;5.918;2022-09-27T03:41:56;533.98;;;494.52;;
22768;SDS011;13001;51.968;5.918;2022-09-27T03:44:23;513.85;;;477.15;;
22768;SDS011;13001;51.968;5.918;2022-09-27T03:46:50;496.00;;;461.10;;
22768;SDS011;13001;51.968;5.918;2022-09-27T03:49:18;478.85;;;444.52;;
22768;SDS011;13001;51.968;5.918;2022-09-27T03:51:45;487.32;;;452.25;;
22768;SDS011;13001;51.968;5.918;2022-09-27T03:54:12;466.38;;;432.32;;
22768;SDS011;13001;51.968;5.918;2022-09-27T03:56:39;460.93;;;428.10;;
22768;SDS011;13001;51.968;5.918;2022-09-27T03:59:07;481.37;;;446.40;;
22768;SDS011;13001;51.968;5.918;2022-09-27T04:01:34;473.43;;;438.85;;
22768;SDS011;13001;51.968;5.918;2022-09-27T04:04:03;475.18;;;440.17;;
22768;SDS011;13001;51.968;5.918;2022-09-27T04:06:31;467.83;;;434.18;;
22768;SDS011;13001;51.968;5.918;2022-09-27T04:09:00;473.88;;;439.40;;
22768;SDS011;13001;51.968;5.918;2022-09-27T04:11:27;484.35;;;450.38;;
22768;SDS011;13001;51.968;5.918;2022-09-27T04:13:54;519.23;;;482.20;;
22768;SDS011;13001;51.968;5.918;2022-09-27T04:16:22;521.92;;;483.83;;
22768;SDS011;13001;51.968;5.918;2022-09-27T04:18:50;527.83;;;489.23;;
22768;SDS011;13001;51.968;5.918;2022-09-27T04:21:17;512.10;;;475.13;;
22768;SDS011;13001;51.968;5.918;2022-09-27T04:23:46;499.73;;;463.93;;
22768;SDS011;13001;51.968;5.918;2022-09-27T04:26:13;465.92;;;433.00;;
22768;SDS011;13001;51.968;5.918;2022-09-27T04:28:40;457.32;;;424.65;;
22768;SDS011;13001;51.968;5.918;2022-09-27T04:31:07;450.32;;;417.90;;
22768;SDS011;13001;51.968;5.918;2022-09-27T04:33:35;464.32;;;431.50;;
22768;SDS011;13001;51.968;5.918;2022-09-27T04:36:02;469.30;;;435.05;;
22768;SDS011;13001;51.968;5.918;2022-09-27T04:38:48;467.53;;;433.87;;
22768;SDS011;13001;51.968;5.918;2022-09-27T04:41:15;484.03;;;448.77;;
22768;SDS011;13001;51.968;5.918;2022-09-27T04:43:42;484.35;;;449.77;;
22768;SDS011;13001;51.968;5.918;2022-09-27T04:46:09;482.62;;;448.13;;
22768;SDS011;13001;51.968;5.918;2022-09-27T04:48:37;479.37;;;445.33;;
22768;SDS011;13001;51.968;5.918;2022-09-27T04:51:04;473.52;;;440.50;;
22768;SDS011;13001;51.968;5.918;2022-09-27T04:53:32;443.15;;;412.88;;
22768;SDS011;13001;51.968;5.918;2022-09-27T04:55:59;423.73;;;394.50;;
22768;SDS011;13001;51.968;5.918;2022-09-27T04:58:31;429.45;;;399.95;;
22768;SDS011;13001;51.968;5.918;2022-09-27T05:00:59;432.52;;;402.90;;
22768;SDS011;13001;51.968;5.918;2022-09-27T05:03:29;467.20;;;435.27;;
22768;SDS011;13001;51.968;5.918;2022-09-27T05:05:56;458.77;;;427.30;;
22768;SDS011;13001;51.968;5.918;2022-09-27T05:08:24;461.68;;;429.23;;
22768;SDS011;13001;51.968;5.918;2022-09-27T05:10:51;490.10;;;455.47;;
22768;SDS011;13001;51.968;5.918;2022-09-27T05:13:19;465.98;;;432.50;;
22768;SDS011;13001;51.968;5.918;2022-09-27T05:15:47;458.77;;;425.40;;
22768;SDS011;13001;51.968;5.918;2022-09-27T05:18:14;492.25;;;457.17;;
22768;SDS011;13001;51.968;5.918;2022-09-27T05:20:43;480.95;;;446.93;;
22768;SDS011;13001;51.968;5.918;2022-09-27T05:23:10;482.45;;;448.45;;
22768;SDS011;13001;51.968;5.918;2022-09-27T05:25:39;487.80;;;454.20;;
22768;SDS011;13001;51.968;5.918;2022-09-27T05:28:07;480.73;;;447.82;;
22768;SDS011;13001;51.968;5.918;2022-09-27T05:30:35;440.77;;;410.83;;
22768;SDS011;13001;51.968;5.918;2022-09-27T05:33:02;411.47;;;383.95;;
22768;SDS011;13001;51.968;5.918;2022-09-27T05:35:29;401.18;;;373.98;;
22768;SDS011;13001;51.968;5.918;2022-09-27T05:37:57;413.75;;;386.37;;
22768;SDS011;13001;51.968;5.918;2022-09-27T05:40:25;431.67;;;402.58;;
22768;SDS011;13001;51.968;5.918;2022-09-27T05:42:54;420.92;;;392.85;;
22768;SDS011;13001;51.968;5.918;2022-09-27T05:45:22;422.70;;;394.60;;
22768;SDS011;13001;51.968;5.918;2022-09-27T05:47:56;429.10;;;400.32;;
22768;SDS011;13001;51.968;5.918;2022-09-27T05:50:24;417.68;;;389.77;;
22768;SDS011;13001;51.968;5.918;2022-09-27T05:52:52;438.37;;;408.57;;
22768;SDS011;13001;51.968;5.918;2022-09-27T05:55:19;430.98;;;402.10;;
22768;SDS011;13001;51.968;5.918;2022-09-27T05:57:56;445.85;;;415.68;;
22768;SDS011;13001;51.968;5.918;2022-09-27T06:00:26;419.07;;;390.77;;
22768;SDS011;13001;51.968;5.918;2022-09-27T06:02:54;439.07;;;409.40;;
22768;SDS011;13001;51.968;5.918;2022-09-27T06:05:22;427.00;;;398.03;;
22768;SDS011;13001;51.968;5.918;2022-09-27T06:07:50;423.62;;;394.55;;
22768;SDS011;13001;51.968;5.918;2022-09-27T06:10:18;443.27;;;413.07;;
22768;SDS011;13001;51.968;5.918;2022-09-27T06:12:46;446.83;;;416.05;;
22768;SDS011;13001;51.968;5.918;2022-09-27T06:15:13;443.15;;;413.15;;
22768;SDS011;13001;51.968;5.918;2022-09-27T06:17:40;440.02;;;409.65;;
22768;SDS011;13001;51.968;5.918;2022-09-27T06:20:08;415.77;;;387.90;;
22768;SDS011;13001;51.968;5.918;2022-09-27T06:22:35;420.20;;;390.12;;
22768;SDS011;13001;51.968;5.918;2022-09-27T06:25:03;358.60;;;334.37;;
22768;SDS011;13001;51.968;5.918;2022-09-27T06:27:30;345.80;;;321.90;;
22768;SDS011;13001;51.968;5.918;2022-09-27T22:33:05;212.40;;;198.57;;
22768;SDS011;13001;51.968;5.918;2022-09-27T22:35:33;161.07;;;149.10;;
22768;SDS011;13001;51.968;5.918;2022-09-27T22:38:00;138.90;;;129.40;;
22768;SDS011;13001;51.968;5.918;2022-09-27T22:40:27;133.57;;;124.30;;
22768;SDS011;13001;51.968;5.918;2022-09-27T22:42:55;135.20;;;126.17;;
22768;SDS011;13001;51.968;5.918;2022-09-27T22:45:23;154.00;;;143.90;;
22768;SDS011;13001;51.968;5.918;2022-09-27T22:47:51;155.60;;;145.53;;
22768;SDS011;13001;51.968;5.918;2022-09-27T22:50:18;129.77;;;121.07;;
22768;SDS011;13001;51.968;5.918;2022-09-27T22:52:45;163.50;;;152.50;;
22768;SDS011;13001;51.968;5.918;2022-09-27T22:55:13;177.87;;;165.90;;
22768;SDS011;13001;51.968;5.918;2022-09-27T22:57:40;173.27;;;162.00;;
22768;SDS011;13001;51.968;5.918;2022-09-27T23:00:08;160.73;;;150.63;;
22768;SDS011;13001;51.968;5.918;2022-09-27T23:02:36;164.27;;;153.70;;
22768;SDS011;13001;51.968;5.918;2022-09-27T23:05:03;182.23;;;170.73;;
22768;SDS011;13001;51.968;5.918;2022-09-27T23:07:31;179.37;;;167.90;;
22768;SDS011;13001;51.968;5.918;2022-09-27T23:09:58;223.67;;;209.47;;
22768;SDS011;13001;51.968;5.918;2022-09-27T23:12:25;198.73;;;186.03;;
22768;SDS011;13001;51.968;5.918;2022-09-27T23:14:52;190.77;;;178.07;;
22768;SDS011;13001;51.968;5.918;2022-09-27T23:17:20;182.33;;;170.73;;
22768;SDS011;13001;51.968;5.918;2022-09-27T23:19:47;179.70;;;168.17;;
22768;SDS011;13001;51.968;5.918;2022-09-27T23:22:14;184.10;;;172.07;;
22768;SDS011;13001;51.968;5.918;2022-09-27T23:24:41;187.20;;;175.20;;
22768;SDS011;13001;51.968;5.918;2022-09-27T23:27:09;177.90;;;166.23;;
22768;SDS011;13001;51.968;5.918;2022-09-27T23:29:54;175.87;;;164.40;;
22768;SDS011;13001;51.968;5.918;2022-09-27T23:32:21;172.23;;;160.87;;
22768;SDS011;13001;51.968;5.918;2022-09-27T23:34:49;175.50;;;164.03;;
22768;SDS011;13001;51.968;5.918;2022-09-27T23:37:16;172.27;;;160.80;;
22768;SDS011;13001;51.968;5.918;2022-09-27T23:39:43;170.17;;;158.87;;
22768;SDS011;13001;51.968;5.918;2022-09-27T23:42:10;165.03;;;154.23;;
22768;SDS011;13001;51.968;5.918;2022-09-27T23:44:39;158.87;;;148.40;;
22768;SDS011;13001;51.968;5.918;2022-09-27T23:47:08;177.13;;;165.37;;
22768;SDS011;13001;51.968;5.918;2022-09-27T23:49:36;167.53;;;156.60;;
22768;SDS011;13001;51.968;5.918;2022-09-27T23:52:03;163.07;;;152.53;;
22768;SDS011;13001;51.968;5.918;2022-09-27T23:54:30;174.90;;;163.20;;
22768;SDS011;13001;51.968;5.918;2022-09-27T23:56:58;164.27;;;153.20;;
22768;SDS011;13001;51.968;5.918;2022-09-27T23:59:26;171.23;;;159.93;;
